createdAt,value
2023-06-11T00:02:04.548Z,45.16
2023-06-11T00:06:04.118Z,45.25
2023-06-11T00:10:04.845Z,45.45
2023-06-11T00:14:04.546Z,45.69
2023-06-11T00:18:05.170Z,46.02
2023-06-11T00:22:05.300Z,46.38
2023-06-11T00:26:05.447Z,46.79
2023-06-11T00:30:06.234Z,47.09
2023-06-11T00:34:04.261Z,47.40
2023-06-11T00:38:06.316Z,47.78
2023-06-11T00:42:04.532Z,48.02
2023-06-11T00:46:10.637Z,47.93
2023-06-11T00:50:05.848Z,47.58
2023-06-11T00:54:04.326Z,47.89
2023-06-11T00:58:05.143Z,48.65
2023-06-11T01:02:09.882Z,49.15
2023-06-11T01:06:08.273Z,49.48
2023-06-11T01:10:05.042Z,49.40
2023-06-11T01:14:05.900Z,49.17
2023-06-11T01:18:12.130Z,49.19
2023-06-11T01:22:13.233Z,49.60
2023-06-11T01:26:15.918Z,49.82
2023-06-11T01:30:04.919Z,49.92
2023-06-11T01:34:04.455Z,50.02
2023-06-11T01:38:06.218Z,49.83
2023-06-11T01:42:05.706Z,49.95
2023-06-11T01:46:05.153Z,50.24
2023-06-11T01:50:04.933Z,50.69
2023-06-11T01:54:05.140Z,50.57
2023-06-11T01:58:04.454Z,50.67
2023-06-11T02:02:04.515Z,51.32
2023-06-11T02:06:04.860Z,51.81
2023-06-11T02:10:04.873Z,52.16
2023-06-11T02:14:04.507Z,52.32
2023-06-11T02:18:04.939Z,52.30
2023-06-11T02:22:04.941Z,52.36
2023-06-11T02:26:04.507Z,52.42
2023-06-11T02:30:05.982Z,52.55
2023-06-11T02:34:05.203Z,52.60
2023-06-11T02:38:04.416Z,52.84
2023-06-11T02:42:05.749Z,52.68
2023-06-11T02:46:04.516Z,52.97
2023-06-11T02:50:05.259Z,52.93
2023-06-11T02:54:04.693Z,52.66
2023-06-11T02:58:04.678Z,53.04
2023-06-11T03:02:04.941Z,53.44
2023-06-11T03:06:04.842Z,53.59
2023-06-11T03:10:05.729Z,53.78
2023-06-11T03:14:04.662Z,53.80
2023-06-11T03:18:04.919Z,53.77
2023-06-11T03:22:04.625Z,53.60
2023-06-11T03:26:04.700Z,53.73
2023-06-11T03:30:05.818Z,54.05
2023-06-11T03:34:04.732Z,54.44
2023-06-11T03:38:04.811Z,54.73
2023-06-11T03:42:06.086Z,54.83
2023-06-11T03:46:05.912Z,55.22
2023-06-11T03:50:06.301Z,55.66
2023-06-11T03:54:04.725Z,55.69
2023-06-11T03:58:04.823Z,55.91
2023-06-11T04:02:05.882Z,56.06
2023-06-11T04:06:04.827Z,55.93
2023-06-11T04:10:06.125Z,56.23
2023-06-11T04:14:04.953Z,56.68
2023-06-11T04:18:04.940Z,56.93
2023-06-11T04:22:05.151Z,57.24
2023-06-11T04:26:07.977Z,57.19
2023-06-11T04:30:06.982Z,57.47
2023-06-11T04:34:07.112Z,57.49
2023-06-11T04:38:05.461Z,57.64
2023-06-11T04:42:05.602Z,57.83
2023-06-11T04:46:04.968Z,58.12
2023-06-11T04:50:06.664Z,57.97
2023-06-11T04:54:07.421Z,58.01
2023-06-11T04:58:04.938Z,58.31
2023-06-11T05:02:05.071Z,58.72
2023-06-11T05:06:05.053Z,59.27
2023-06-11T05:10:06.061Z,59.35
2023-06-11T05:18:05.506Z,59.64
2023-06-11T05:22:05.629Z,59.64
2023-06-11T05:26:12.102Z,59.87
2023-06-11T05:30:05.841Z,59.90
2023-06-11T05:34:05.287Z,60.02
2023-06-11T05:38:06.303Z,60.15
2023-06-11T05:42:06.420Z,60.10
2023-06-11T05:46:06.068Z,59.84
2023-06-11T05:50:06.432Z,59.77
2023-06-11T05:54:05.274Z,60.08
2023-06-11T05:58:05.347Z,59.90
2023-06-11T06:02:05.475Z,59.86
2023-06-11T06:06:05.123Z,59.78
2023-06-11T06:10:05.501Z,59.50
2023-06-11T06:14:05.259Z,59.28
2023-06-11T06:18:05.539Z,59.63
2023-06-11T06:22:05.356Z,59.14
2023-06-11T06:26:05.978Z,58.79
2023-06-11T06:30:06.021Z,58.83
2023-06-11T06:34:05.198Z,58.75
2023-06-11T06:38:05.329Z,58.89
2023-06-11T06:42:06.767Z,58.67
2023-06-11T06:46:05.958Z,58.62
2023-06-11T06:47:05.970Z,58.62
2023-06-11T06:50:05.550Z,58.49
2023-06-11T06:54:05.411Z,58.84
2023-06-11T06:58:05.277Z,58.50
2023-06-11T07:02:08.768Z,58.25
2023-06-11T07:06:05.230Z,58.10
2023-06-11T07:10:05.829Z,57.52
2023-06-11T07:14:05.314Z,57.82
2023-06-11T07:18:05.436Z,57.76
2023-06-11T07:22:05.390Z,57.40
2023-06-11T07:26:05.778Z,56.90
2023-06-11T07:30:06.039Z,57.13
2023-06-11T07:34:06.463Z,56.99
2023-06-11T07:38:05.424Z,56.28
2023-06-11T07:42:06.944Z,56.26
2023-06-11T07:46:05.514Z,56.29
2023-06-11T07:50:06.354Z,56.42
2023-06-11T07:54:06.161Z,56.66
2023-06-11T07:58:05.544Z,56.41
2023-06-11T08:02:06.543Z,56.24
2023-06-11T08:06:05.533Z,56.06
2023-06-11T08:10:05.891Z,55.84
2023-06-11T08:14:05.528Z,55.96
2023-06-11T08:18:05.527Z,55.93
2023-06-11T08:22:06.160Z,55.93
2023-06-11T08:26:05.688Z,55.81
2023-06-11T08:30:06.945Z,56.25
2023-06-11T08:34:05.446Z,55.78
2023-06-11T08:38:05.707Z,55.50
2023-06-11T08:42:06.182Z,54.97
2023-06-11T08:46:05.859Z,54.62
2023-06-11T08:50:07.747Z,54.01
2023-06-11T08:54:06.541Z,54.54
2023-06-11T08:58:05.636Z,53.66
2023-06-11T09:02:06.221Z,53.53
2023-06-11T09:06:05.983Z,53.66
2023-06-11T09:10:07.600Z,53.63
2023-06-11T09:14:06.431Z,53.66
2023-06-11T09:18:08.906Z,53.30
2023-06-11T09:22:05.692Z,53.20
2023-06-11T09:26:05.855Z,52.87
2023-06-11T09:30:07.271Z,52.87
2023-06-11T09:34:07.518Z,52.74
2023-06-11T09:38:05.834Z,52.79
2023-06-11T09:42:07.576Z,52.71
2023-06-11T09:46:06.340Z,52.52
2023-06-11T09:50:07.287Z,52.45
2023-06-11T09:54:07.050Z,52.69
2023-06-11T09:58:06.644Z,52.09
2023-06-11T10:02:07.662Z,52.23
2023-06-11T10:06:10.432Z,52.20
2023-06-11T10:10:08.571Z,51.56
2023-06-11T10:14:11.426Z,50.83
2023-06-11T10:18:13.801Z,50.62
2023-06-11T10:22:06.392Z,50.74
2023-06-11T10:26:32.954Z,50.75
2023-06-11T10:30:06.990Z,50.69
2023-06-11T10:34:06.558Z,50.40
2023-06-11T10:38:10.362Z,50.28
2023-06-11T10:42:07.147Z,50.15
2023-06-11T10:46:07.235Z,50.24
2023-06-11T10:50:08.163Z,50.03
2023-06-11T10:54:07.248Z,50.25
2023-06-11T10:58:06.141Z,49.67
2023-06-11T11:02:11.729Z,48.67
2023-06-11T11:06:05.922Z,49.18
2023-06-11T11:10:07.121Z,49.19
2023-06-11T11:14:05.973Z,49.21
2023-06-11T11:18:08.108Z,48.68
2023-06-11T11:22:05.962Z,48.32
2023-06-11T11:26:06.771Z,48.07
2023-06-11T11:30:06.668Z,48.29
2023-06-11T11:34:18.060Z,47.52
2023-06-11T11:38:06.074Z,46.80
2023-06-11T11:42:08.496Z,47.22
2023-06-11T11:46:14.213Z,46.29
2023-06-11T11:50:10.656Z,46.38
2023-06-11T11:54:17.907Z,46.38
2023-06-11T11:58:07.955Z,45.41
2023-06-11T12:02:07.406Z,45.08
2023-06-11T12:06:07.698Z,44.70
2023-06-11T12:10:06.688Z,44.18
2023-06-11T12:14:06.232Z,44.51
2023-06-11T12:18:06.224Z,43.86
2023-06-11T12:22:06.457Z,43.08
2023-06-11T12:26:06.170Z,43.10
2023-06-11T12:30:06.850Z,43.34
2023-06-11T12:34:06.897Z,43.03
2023-06-11T12:38:06.793Z,42.63
2023-06-11T12:42:06.520Z,42.60
2023-06-11T12:46:07.982Z,42.14
2023-06-11T12:50:07.315Z,41.47
2023-06-11T12:54:08.379Z,40.21
2023-06-11T12:58:06.782Z,41.15
2023-06-11T13:02:07.127Z,40.23
2023-06-11T13:06:08.064Z,40.84
2023-06-11T13:10:07.877Z,39.85
2023-06-11T13:14:06.833Z,39.94
2023-06-11T13:18:06.511Z,39.43
2023-06-11T13:22:08.086Z,38.94
2023-06-11T13:26:06.421Z,39.14
2023-06-11T13:30:09.702Z,38.83
2023-06-11T13:34:07.350Z,37.70
2023-06-11T13:38:06.680Z,37.78
2023-06-11T13:42:06.905Z,37.03
2023-06-11T13:46:06.406Z,37.48
2023-06-11T13:50:06.900Z,37.73
2023-06-11T13:54:06.733Z,37.24
2023-06-11T13:58:06.968Z,36.45
2023-06-11T14:02:07.282Z,35.42
2023-06-11T14:06:07.921Z,35.83
2023-06-11T14:10:07.237Z,35.16
2023-06-11T14:14:06.847Z,34.08
2023-06-11T14:18:06.610Z,33.62
2023-06-11T14:22:06.729Z,33.62
2023-06-11T14:26:06.553Z,34.07
2023-06-11T14:30:07.295Z,33.51
2023-06-11T14:34:06.540Z,32.84
2023-06-11T14:38:06.703Z,33.08
2023-06-11T14:42:07.187Z,33.51
2023-06-11T14:46:06.706Z,33.68
2023-06-11T14:50:07.252Z,32.96
2023-06-11T14:54:06.785Z,32.63
2023-06-11T14:58:06.585Z,33.10
2023-06-11T15:02:07.430Z,32.86
2023-06-11T15:06:06.769Z,32.99
2023-06-11T15:10:08.370Z,33.54
2023-06-11T15:14:06.828Z,33.05
2023-06-11T15:18:07.574Z,32.65
2023-06-11T15:22:07.107Z,32.57
2023-06-11T15:26:06.811Z,33.13
2023-06-11T15:30:07.932Z,33.68
2023-06-11T15:34:06.736Z,33.99
2023-06-11T15:38:07.196Z,34.25
2023-06-11T15:42:07.126Z,34.28
2023-06-11T15:46:07.321Z,34.59
2023-06-11T15:50:07.196Z,34.44
2023-06-11T15:54:06.909Z,34.69
2023-06-11T15:58:09.058Z,34.61
2023-06-11T16:02:06.820Z,34.72
2023-06-11T16:06:06.900Z,35.07
2023-06-11T16:10:07.326Z,35.50
2023-06-11T16:14:07.004Z,35.64
2023-06-11T16:18:06.897Z,35.87
2023-06-11T16:22:10.417Z,36.06
2023-06-11T16:26:06.961Z,36.45
2023-06-11T16:30:08.132Z,36.46
2023-06-11T16:34:06.982Z,36.55
2023-06-11T16:38:06.943Z,36.76
2023-06-11T16:42:07.241Z,37.02
2023-06-11T16:46:07.260Z,37.47
2023-06-11T16:50:07.317Z,37.49
2023-06-11T16:54:07.827Z,37.98
2023-06-11T16:58:07.284Z,38.51
2023-06-11T17:02:07.064Z,38.99
2023-06-11T17:06:07.032Z,39.16
2023-06-11T17:10:07.412Z,39.54
2023-06-11T17:14:07.033Z,39.60
2023-06-11T17:18:07.245Z,39.78
2023-06-11T17:22:07.030Z,39.99
2023-06-11T17:26:07.167Z,40.06
2023-06-11T17:30:07.914Z,40.04
2023-06-11T17:34:07.317Z,39.90
2023-06-11T17:38:07.319Z,40.06
2023-06-11T17:42:07.216Z,39.93
2023-06-11T17:46:10.471Z,40.14
2023-06-11T17:50:07.904Z,39.86
2023-06-11T17:54:07.126Z,40.16
2023-06-11T17:58:07.273Z,40.13
2023-06-11T18:02:07.326Z,40.09
2023-06-11T18:06:07.311Z,40.04
2023-06-11T18:10:10.377Z,40.06
2023-06-11T18:14:07.512Z,40.17
2023-06-11T18:18:07.171Z,40.46
2023-06-11T18:22:07.884Z,40.56
2023-06-11T18:26:07.321Z,40.67
2023-06-11T18:30:07.865Z,41.02
2023-06-11T18:34:07.210Z,41.12
2023-06-11T18:38:07.546Z,41.15
2023-06-11T18:42:20.599Z,41.31
2023-06-11T18:46:07.415Z,41.39
2023-06-11T18:52:30.478Z,41.39
2023-06-11T18:54:07.276Z,41.52
2023-06-11T18:58:07.425Z,41.59
2023-06-11T19:02:07.487Z,41.78
2023-06-11T19:06:07.562Z,42.03
2023-06-11T19:10:10.978Z,42.25
2023-06-11T19:14:07.474Z,42.48
2023-06-11T19:18:09.808Z,42.88
2023-06-11T19:22:07.449Z,43.15
2023-06-11T19:26:07.423Z,43.37
2023-06-11T19:30:08.113Z,43.57
2023-06-11T19:34:07.666Z,43.76
2023-06-11T19:38:07.654Z,43.89
2023-06-11T19:42:07.805Z,44.01
2023-06-11T19:46:07.615Z,44.11
2023-06-11T19:50:07.866Z,44.25
2023-06-11T19:54:07.605Z,44.54
2023-06-11T19:58:07.441Z,44.71
2023-06-11T20:02:07.599Z,44.85
2023-06-11T20:06:07.767Z,45.18
2023-06-11T20:10:08.330Z,45.63
2023-06-11T20:14:07.544Z,46.22
2023-06-11T20:18:07.752Z,46.70
2023-06-11T20:22:07.760Z,47.05
2023-06-11T20:26:08.051Z,47.32
2023-06-11T20:30:08.598Z,47.56
2023-06-11T20:34:07.808Z,47.68
2023-06-11T20:38:07.621Z,47.72
2023-06-11T20:42:07.971Z,47.65
2023-06-11T20:46:23.380Z,47.79
2023-06-11T20:50:08.124Z,48.42
2023-06-11T20:54:07.878Z,49.00
2023-06-11T20:58:07.874Z,49.32
2023-06-11T21:02:07.745Z,49.65
2023-06-11T21:06:07.916Z,49.98
2023-06-11T21:10:08.468Z,50.28
2023-06-11T21:14:14.276Z,50.43
2023-06-11T21:18:08.185Z,50.67
2023-06-11T21:22:08.083Z,50.98
2023-06-11T21:26:08.036Z,51.01
2023-06-11T21:30:08.642Z,50.73
2023-06-11T21:34:07.791Z,50.84
2023-06-11T21:38:07.989Z,51.08
2023-06-11T21:42:08.664Z,51.29
2023-06-11T21:46:08.183Z,51.24
2023-06-11T21:50:08.474Z,51.38
2023-06-11T21:54:07.929Z,51.52
2023-06-11T21:58:07.885Z,51.46
2023-06-11T22:02:08.960Z,51.78
2023-06-11T22:06:08.414Z,51.82
2023-06-11T22:10:08.750Z,52.06
2023-06-11T22:14:08.625Z,52.42
2023-06-11T22:18:09.115Z,52.57
2023-06-11T22:22:10.320Z,52.81
2023-06-11T22:26:08.733Z,53.15
2023-06-11T22:30:10.494Z,53.32
2023-06-11T22:34:08.237Z,53.45
2023-06-11T22:38:07.945Z,53.76
2023-06-11T22:42:08.669Z,54.02
2023-06-11T22:46:08.050Z,54.05
2023-06-11T22:50:08.963Z,54.42
2023-06-11T22:54:08.367Z,54.69
2023-06-11T22:58:08.592Z,54.85
2023-06-11T23:02:08.146Z,55.09
2023-06-11T23:06:08.868Z,55.42
2023-06-11T23:10:08.401Z,55.37
2023-06-11T23:14:09.247Z,55.34
2023-06-11T23:18:09.786Z,55.59
2023-06-11T23:22:08.363Z,55.69
2023-06-11T23:26:09.367Z,55.84
2023-06-11T23:30:09.105Z,55.94
2023-06-11T23:34:09.022Z,56.03
2023-06-11T23:38:08.653Z,56.30
2023-06-11T23:42:08.475Z,56.40
2023-06-11T23:46:11.353Z,56.54
2023-06-11T23:50:09.311Z,56.81
2023-06-11T23:54:08.410Z,56.83
